sensor_id;sensor_type;location;lat;lon;timestamp;temperature;humidity
31639;DHT22;18248;51.522;7.020;2022-08-21T00:00:06;20.40;99.90
31639;DHT22;18248;51.522;7.020;2022-08-21T00:03:09;20.20;99.90
31639;DHT22;18248;51.522;7.020;2022-08-21T00:06:08;20.20;99.90
31639;DHT22;18248;51.522;7.020;2022-08-21T00:09:08;20.00;99.90
31639;DHT22;18248;51.522;7.020;2022-08-21T00:12:07;20.00;99.90
31639;DHT22;18248;51.522;7.020;2022-08-21T00:15:08;20.00;99.90
31639;DHT22;18248;51.522;7.020;2022-08-21T00:18:08;20.00;99.90
31639;DHT22;18248;51.522;7.020;2022-08-21T00:21:12;20.00;99.90
31639;DHT22;18248;51.522;7.020;2022-08-21T00:24:11;20.00;99.90
31639;DHT22;18248;51.522;7.020;2022-08-21T00:27:10;19.90;99.90
31639;DHT22;18248;51.522;7.020;2022-08-21T00:30:11;19.80;99.90
31639;DHT22;18248;51.522;7.020;2022-08-21T00:33:11;19.70;99.90
31639;DHT22;18248;51.522;7.020;2022-08-21T00:36:09;19.60;99.90
31639;DHT22;18248;51.522;7.020;2022-08-21T00:39:09;19.70;99.90
31639;DHT22;18248;51.522;7.020;2022-08-21T00:42:08;19.70;99.90
31639;DHT22;18248;51.522;7.020;2022-08-21T00:45:07;19.60;99.90
31639;DHT22;18248;51.522;7.020;2022-08-21T00:48:06;19.60;99.90
31639;DHT22;18248;51.522;7.020;2022-08-21T00:51:08;19.70;99.90
31639;DHT22;18248;51.522;7.020;2022-08-21T00:54:09;19.70;99.90
31639;DHT22;18248;51.522;7.020;2022-08-21T00:57:19;19.70;99.90
31639;DHT22;18248;51.522;7.020;2022-08-21T01:00:22;19.70;99.90
31639;DHT22;18248;51.522;7.020;2022-08-21T01:03:23;19.60;99.90
31639;DHT22;18248;51.522;7.020;2022-08-21T01:06:22;19.60;99.90
31639;DHT22;18248;51.522;7.020;2022-08-21T01:09:21;19.60;99.90
31639;DHT22;18248;51.522;7.020;2022-08-21T01:12:19;19.50;99.90
31639;DHT22;18248;51.522;7.020;2022-08-21T01:15:19;19.50;99.90
31639;DHT22;18248;51.522;7.020;2022-08-21T01:18:19;19.30;99.90
31639;DHT22;18248;51.522;7.020;2022-08-21T01:21:23;19.20;99.90
31639;DHT22;18248;51.522;7.020;2022-08-21T01:24:22;19.20;99.90
31639;DHT22;18248;51.522;7.020;2022-08-21T01:27:22;19.10;99.90
31639;DHT22;18248;51.522;7.020;2022-08-21T01:30:26;19.00;99.90
31639;DHT22;18248;51.522;7.020;2022-08-21T01:33:25;18.90;99.90
31639;DHT22;18248;51.522;7.020;2022-08-21T01:36:24;18.80;99.90
31639;DHT22;18248;51.522;7.020;2022-08-21T01:39:23;18.80;99.90
31639;DHT22;18248;51.522;7.020;2022-08-21T01:42:22;18.80;99.90
31639;DHT22;18248;51.522;7.020;2022-08-21T01:45:22;18.80;99.90
31639;DHT22;18248;51.522;7.020;2022-08-21T01:48:20;18.80;99.90
31639;DHT22;18248;51.522;7.020;2022-08-21T01:51:19;18.70;99.90
31639;DHT22;18248;51.522;7.020;2022-08-21T01:54:18;18.60;99.90
31639;DHT22;18248;51.522;7.020;2022-08-21T01:57:17;18.60;99.90
31639;DHT22;18248;51.522;7.020;2022-08-21T02:00:19;18.60;99.90
31639;DHT22;18248;51.522;7.020;2022-08-21T02:03:18;18.50;99.90
31639;DHT22;18248;51.522;7.020;2022-08-21T02:06:17;18.40;99.90
31639;DHT22;18248;51.522;7.020;2022-08-21T02:09:16;18.40;99.90
31639;DHT22;18248;51.522;7.020;2022-08-21T02:12:15;18.40;99.90
31639;DHT22;18248;51.522;7.020;2022-08-21T02:15:13;18.30;99.90
31639;DHT22;18248;51.522;7.020;2022-08-21T02:18:12;18.30;99.90
31639;DHT22;18248;51.522;7.020;2022-08-21T02:21:11;18.20;99.90
31639;DHT22;18248;51.522;7.020;2022-08-21T02:24:10;18.10;99.90
31639;DHT22;18248;51.522;7.020;2022-08-21T02:27:09;18.20;99.90
31639;DHT22;18248;51.522;7.020;2022-08-21T02:30:11;18.10;99.90
31639;DHT22;18248;51.522;7.020;2022-08-21T02:33:11;18.10;99.90
31639;DHT22;18248;51.522;7.020;2022-08-21T02:36:11;18.00;99.90
31639;DHT22;18248;51.522;7.020;2022-08-21T02:39:09;18.00;99.90
31639;DHT22;18248;51.522;7.020;2022-08-21T02:42:08;17.90;99.90
31639;DHT22;18248;51.522;7.020;2022-08-21T02:45:07;17.90;99.90
31639;DHT22;18248;51.522;7.020;2022-08-21T02:48:12;17.80;99.90
31639;DHT22;18248;51.522;7.020;2022-08-21T02:51:17;17.70;99.90
31639;DHT22;18248;51.522;7.020;2022-08-21T02:54:16;17.70;99.90
31639;DHT22;18248;51.522;7.020;2022-08-21T02:57:15;17.70;99.90
31639;DHT22;18248;51.522;7.020;2022-08-21T03:00:15;17.60;99.90
31639;DHT22;18248;51.522;7.020;2022-08-21T03:03:14;17.70;99.90
31639;DHT22;18248;51.522;7.020;2022-08-21T03:06:15;17.60;99.90
31639;DHT22;18248;51.522;7.020;2022-08-21T03:09:13;17.60;99.90
31639;DHT22;18248;51.522;7.020;2022-08-21T03:12:12;17.70;99.90
31639;DHT22;18248;51.522;7.020;2022-08-21T03:15:12;17.70;99.90
31639;DHT22;18248;51.522;7.020;2022-08-21T03:18:13;17.60;99.90
31639;DHT22;18248;51.522;7.020;2022-08-21T03:21:12;17.60;99.90
31639;DHT22;18248;51.522;7.020;2022-08-21T03:24:11;17.70;99.90
31639;DHT22;18248;51.522;7.020;2022-08-21T03:27:10;17.80;99.90
31639;DHT22;18248;51.522;7.020;2022-08-21T03:30:09;17.80;99.90
31639;DHT22;18248;51.522;7.020;2022-08-21T03:33:08;17.70;99.90
31639;DHT22;18248;51.522;7.020;2022-08-21T03:36:08;17.80;99.90
31639;DHT22;18248;51.522;7.020;2022-08-21T03:39:06;17.80;99.90
31639;DHT22;18248;51.522;7.020;2022-08-21T03:42:05;17.80;99.90
31639;DHT22;18248;51.522;7.020;2022-08-21T03:45:05;17.80;99.90
31639;DHT22;18248;51.522;7.020;2022-08-21T03:48:06;17.80;99.90
31639;DHT22;18248;51.522;7.020;2022-08-21T03:51:05;17.70;99.90
31639;DHT22;18248;51.522;7.020;2022-08-21T03:54:04;17.70;99.90
31639;DHT22;18248;51.522;7.020;2022-08-21T03:57:03;17.70;99.90
31639;DHT22;18248;51.522;7.020;2022-08-21T04:00:02;17.70;99.90
31639;DHT22;18248;51.522;7.020;2022-08-21T04:03:01;17.70;99.90
31639;DHT22;18248;51.522;7.020;2022-08-21T04:05:59;17.70;99.90
31639;DHT22;18248;51.522;7.020;2022-08-21T04:08:58;17.70;99.90
31639;DHT22;18248;51.522;7.020;2022-08-21T04:11:58;17.70;99.90
31639;DHT22;18248;51.522;7.020;2022-08-21T04:14:57;17.70;99.90
31639;DHT22;18248;51.522;7.020;2022-08-21T04:17:56;17.70;99.90
31639;DHT22;18248;51.522;7.020;2022-08-21T04:20:57;17.50;99.90
31639;DHT22;18248;51.522;7.020;2022-08-21T04:23:56;17.50;99.90
31639;DHT22;18248;51.522;7.020;2022-08-21T04:26:55;17.50;99.90
31639;DHT22;18248;51.522;7.020;2022-08-21T04:29:54;17.40;99.90
31639;DHT22;18248;51.522;7.020;2022-08-21T04:32:52;17.40;99.90
31639;DHT22;18248;51.522;7.020;2022-08-21T04:35:51;17.30;99.90
31639;DHT22;18248;51.522;7.020;2022-08-21T04:38:49;17.30;99.90
31639;DHT22;18248;51.522;7.020;2022-08-21T04:41:48;17.30;99.90
31639;DHT22;18248;51.522;7.020;2022-08-21T04:44:48;17.30;99.90
31639;DHT22;18248;51.522;7.020;2022-08-21T04:47:53;17.30;99.90
31639;DHT22;18248;51.522;7.020;2022-08-21T04:51:13;17.30;99.90
31639;DHT22;18248;51.522;7.020;2022-08-21T04:54:19;17.30;99.90
31639;DHT22;18248;51.522;7.020;2022-08-21T04:57:19;17.30;99.90
31639;DHT22;18248;51.522;7.020;2022-08-21T05:00:17;17.30;99.90
31639;DHT22;18248;51.522;7.020;2022-08-21T05:03:17;17.30;99.90
31639;DHT22;18248;51.522;7.020;2022-08-21T05:06:16;17.30;99.90
31639;DHT22;18248;51.522;7.020;2022-08-21T05:09:16;17.40;99.90
31639;DHT22;18248;51.522;7.020;2022-08-21T05:12:16;17.30;99.90
31639;DHT22;18248;51.522;7.020;2022-08-21T05:15:15;17.30;99.90
31639;DHT22;18248;51.522;7.020;2022-08-21T05:18:15;17.30;99.90
31639;DHT22;18248;51.522;7.020;2022-08-21T05:21:14;17.40;99.90
31639;DHT22;18248;51.522;7.020;2022-08-21T05:24:14;17.40;99.90
31639;DHT22;18248;51.522;7.020;2022-08-21T05:27:13;17.40;99.90
31639;DHT22;18248;51.522;7.020;2022-08-21T05:30:13;17.50;99.90
31639;DHT22;18248;51.522;7.020;2022-08-21T05:33:11;17.50;99.90
31639;DHT22;18248;51.522;7.020;2022-08-21T05:36:10;17.50;99.90
31639;DHT22;18248;51.522;7.020;2022-08-21T05:39:10;17.60;99.90
31639;DHT22;18248;51.522;7.020;2022-08-21T05:42:09;17.60;99.90
31639;DHT22;18248;51.522;7.020;2022-08-21T05:45:09;17.80;99.90
31639;DHT22;18248;51.522;7.020;2022-08-21T05:48:14;17.90;99.90
31639;DHT22;18248;51.522;7.020;2022-08-21T05:51:16;18.00;99.90
31639;DHT22;18248;51.522;7.020;2022-08-21T05:54:14;18.00;99.90
31639;DHT22;18248;51.522;7.020;2022-08-21T05:57:13;18.10;99.90
31639;DHT22;18248;51.522;7.020;2022-08-21T06:00:12;18.20;99.90
31639;DHT22;18248;51.522;7.020;2022-08-21T06:03:25;18.30;99.90
31639;DHT22;18248;51.522;7.020;2022-08-21T06:06:24;18.30;99.90
31639;DHT22;18248;51.522;7.020;2022-08-21T06:09:23;18.40;99.90
31639;DHT22;18248;51.522;7.020;2022-08-21T06:12:21;18.50;99.90
31639;DHT22;18248;51.522;7.020;2022-08-21T06:15:20;18.60;99.90
31639;DHT22;18248;51.522;7.020;2022-08-21T06:18:20;18.70;99.90
31639;DHT22;18248;51.522;7.020;2022-08-21T06:21:19;18.70;99.90
31639;DHT22;18248;51.522;7.020;2022-08-21T06:24:18;18.70;99.90
31639;DHT22;18248;51.522;7.020;2022-08-21T06:27:17;18.80;99.90
31639;DHT22;18248;51.522;7.020;2022-08-21T06:30:16;18.90;99.90
31639;DHT22;18248;51.522;7.020;2022-08-21T06:33:15;19.20;99.90
31639;DHT22;18248;51.522;7.020;2022-08-21T06:36:14;19.90;99.90
31639;DHT22;18248;51.522;7.020;2022-08-21T06:39:14;20.90;99.90
31639;DHT22;18248;51.522;7.020;2022-08-21T06:42:15;22.00;99.90
31639;DHT22;18248;51.522;7.020;2022-08-21T06:45:13;23.30;99.90
31639;DHT22;18248;51.522;7.020;2022-08-21T06:48:13;24.20;99.90
31639;DHT22;18248;51.522;7.020;2022-08-21T06:51:14;25.20;99.90
31639;DHT22;18248;51.522;7.020;2022-08-21T06:54:12;26.40;99.90
31639;DHT22;18248;51.522;7.020;2022-08-21T06:57:13;27.20;99.90
31639;DHT22;18248;51.522;7.020;2022-08-21T07:00:12;27.80;99.90
31639;DHT22;18248;51.522;7.020;2022-08-21T07:03:29;28.30;99.90
31639;DHT22;18248;51.522;7.020;2022-08-21T07:06:28;29.10;99.90
31639;DHT22;18248;51.522;7.020;2022-08-21T07:09:27;29.60;99.90
31639;DHT22;18248;51.522;7.020;2022-08-21T07:12:25;30.10;99.30
31639;DHT22;18248;51.522;7.020;2022-08-21T07:15:24;30.60;97.10
31639;DHT22;18248;51.522;7.020;2022-08-21T07:18:23;31.10;94.50
31639;DHT22;18248;51.522;7.020;2022-08-21T07:21:21;30.60;91.50
31639;DHT22;18248;51.522;7.020;2022-08-21T07:24:20;30.70;91.40
31639;DHT22;18248;51.522;7.020;2022-08-21T07:27:19;30.40;89.60
31639;DHT22;18248;51.522;7.020;2022-08-21T07:30:18;30.10;89.90
31639;DHT22;18248;51.522;7.020;2022-08-21T07:33:16;30.30;90.00
31639;DHT22;18248;51.522;7.020;2022-08-21T07:36:15;30.90;89.70
31639;DHT22;18248;51.522;7.020;2022-08-21T07:39:14;31.40;86.50
31639;DHT22;18248;51.522;7.020;2022-08-21T07:42:12;31.80;84.20
31639;DHT22;18248;51.522;7.020;2022-08-21T07:45:11;31.90;82.00
31639;DHT22;18248;51.522;7.020;2022-08-21T07:48:10;32.10;81.00
31639;DHT22;18248;51.522;7.020;2022-08-21T07:51:11;32.20;78.60
31639;DHT22;18248;51.522;7.020;2022-08-21T07:54:10;31.90;75.70
31639;DHT22;18248;51.522;7.020;2022-08-21T07:57:09;31.40;76.80
31639;DHT22;18248;51.522;7.020;2022-08-21T08:00:11;31.50;77.30
31639;DHT22;18248;51.522;7.020;2022-08-21T08:03:10;31.80;77.10
31639;DHT22;18248;51.522;7.020;2022-08-21T08:06:08;32.00;77.30
31639;DHT22;18248;51.522;7.020;2022-08-21T08:09:10;32.00;74.50
31639;DHT22;18248;51.522;7.020;2022-08-21T08:12:09;31.80;74.40
31639;DHT22;18248;51.522;7.020;2022-08-21T08:15:12;31.90;73.80
31639;DHT22;18248;51.522;7.020;2022-08-21T08:18:11;31.90;73.10
31639;DHT22;18248;51.522;7.020;2022-08-21T08:21:10;31.70;73.10
31639;DHT22;18248;51.522;7.020;2022-08-21T08:24:09;32.00;73.30
31639;DHT22;18248;51.522;7.020;2022-08-21T08:27:07;32.20;70.60
31639;DHT22;18248;51.522;7.020;2022-08-21T08:30:08;31.90;71.30
31639;DHT22;18248;51.522;7.020;2022-08-21T08:33:08;31.90;70.60
31639;DHT22;18248;51.522;7.020;2022-08-21T08:36:16;32.10;70.10
31639;DHT22;18248;51.522;7.020;2022-08-21T08:39:15;32.30;67.60
31639;DHT22;18248;51.522;7.020;2022-08-21T08:42:20;32.30;67.90
31639;DHT22;18248;51.522;7.020;2022-08-21T08:45:22;32.10;67.00
31639;DHT22;18248;51.522;7.020;2022-08-21T08:52:03;32.00;65.90
31639;DHT22;18248;51.522;7.020;2022-08-21T08:58:11;31.80;65.90
31639;DHT22;18248;51.522;7.020;2022-08-21T09:01:17;31.40;66.60
31639;DHT22;18248;51.522;7.020;2022-08-21T09:04:22;31.00;66.90
31639;DHT22;18248;51.522;7.020;2022-08-21T09:10:50;29.70;69.70
31639;DHT22;18248;51.522;7.020;2022-08-21T09:23:52;27.60;74.60
31639;DHT22;18248;51.522;7.020;2022-08-21T09:29:58;26.90;76.20
31639;DHT22;18248;51.522;7.020;2022-08-21T09:32:57;26.60;76.90
31639;DHT22;18248;51.522;7.020;2022-08-21T09:35:56;26.60;77.10
31639;DHT22;18248;51.522;7.020;2022-08-21T09:38:58;26.50;77.50
31639;DHT22;18248;51.522;7.020;2022-08-21T09:42:03;26.40;77.70
31639;DHT22;18248;51.522;7.020;2022-08-21T09:45:16;26.40;78.00
31639;DHT22;18248;51.522;7.020;2022-08-21T09:48:21;26.50;78.70
31639;DHT22;18248;51.522;7.020;2022-08-21T09:51:23;26.60;78.50
31639;DHT22;18248;51.522;7.020;2022-08-21T09:54:30;26.70;78.80
31639;DHT22;18248;51.522;7.020;2022-08-21T09:57:30;26.70;78.50
31639;DHT22;18248;51.522;7.020;2022-08-21T10:00:38;26.80;78.50
31639;DHT22;18248;51.522;7.020;2022-08-21T10:03:38;26.80;78.20
31639;DHT22;18248;51.522;7.020;2022-08-21T10:06:37;26.70;77.80
31639;DHT22;18248;51.522;7.020;2022-08-21T10:09:36;26.80;78.80
31639;DHT22;18248;51.522;7.020;2022-08-21T10:12:50;26.90;78.40
31639;DHT22;18248;51.522;7.020;2022-08-21T10:19:22;27.10;78.30
31639;DHT22;18248;51.522;7.020;2022-08-21T10:35:40;27.40;77.50
31639;DHT22;18248;51.522;7.020;2022-08-21T10:45:41;27.70;78.40
31639;DHT22;18248;51.522;7.020;2022-08-21T10:55:37;27.90;76.80
31639;DHT22;18248;51.522;7.020;2022-08-21T10:58:45;28.00;76.80
31639;DHT22;18248;51.522;7.020;2022-08-21T11:02:13;28.00;76.30
31639;DHT22;18248;51.522;7.020;2022-08-21T11:05:33;28.00;75.70
31639;DHT22;18248;51.522;7.020;2022-08-21T11:08:39;28.00;74.20
31639;DHT22;18248;51.522;7.020;2022-08-21T11:11:44;28.10;74.90
31639;DHT22;18248;51.522;7.020;2022-08-21T11:18:30;28.10;71.70
31639;DHT22;18248;51.522;7.020;2022-08-21T11:21:50;28.20;72.20
31639;DHT22;18248;51.522;7.020;2022-08-21T11:24:56;28.20;73.10
31639;DHT22;18248;51.522;7.020;2022-08-21T11:31:38;28.30;71.70
31639;DHT22;18248;51.522;7.020;2022-08-21T11:41:23;28.50;72.60
31639;DHT22;18248;51.522;7.020;2022-08-21T11:47:54;28.30;73.20
31639;DHT22;18248;51.522;7.020;2022-08-21T11:50:55;28.60;72.30
31639;DHT22;18248;51.522;7.020;2022-08-21T11:53:59;28.60;73.50
31639;DHT22;18248;51.522;7.020;2022-08-21T11:57:04;28.40;72.30
31639;DHT22;18248;51.522;7.020;2022-08-21T12:03:31;28.10;72.60
31639;DHT22;18248;51.522;7.020;2022-08-21T12:09:34;28.40;71.40
31639;DHT22;18248;51.522;7.020;2022-08-21T12:12:37;28.60;71.20
31639;DHT22;18248;51.522;7.020;2022-08-21T12:15:36;28.80;70.40
31639;DHT22;18248;51.522;7.020;2022-08-21T12:18:35;29.00;69.10
31639;DHT22;18248;51.522;7.020;2022-08-21T12:21:53;29.00;68.10
31639;DHT22;18248;51.522;7.020;2022-08-21T12:25:05;29.20;68.00
31639;DHT22;18248;51.522;7.020;2022-08-21T12:28:13;29.10;67.70
31639;DHT22;18248;51.522;7.020;2022-08-21T12:31:24;29.20;68.00
31639;DHT22;18248;51.522;7.020;2022-08-21T12:34:35;29.10;67.40
31639;DHT22;18248;51.522;7.020;2022-08-21T12:37:45;29.00;66.60
31639;DHT22;18248;51.522;7.020;2022-08-21T12:40:54;29.10;67.30
31639;DHT22;18248;51.522;7.020;2022-08-21T12:44:07;29.40;66.50
31639;DHT22;18248;51.522;7.020;2022-08-21T12:47:29;29.40;66.40
31639;DHT22;18248;51.522;7.020;2022-08-21T12:50:36;29.40;67.00
31639;DHT22;18248;51.522;7.020;2022-08-21T12:53:49;29.30;67.20
31639;DHT22;18248;51.522;7.020;2022-08-21T12:57:02;29.50;66.40
31639;DHT22;18248;51.522;7.020;2022-08-21T13:00:06;29.50;67.20
31639;DHT22;18248;51.522;7.020;2022-08-21T13:03:09;29.40;66.40
31639;DHT22;18248;51.522;7.020;2022-08-21T13:06:14;29.20;67.80
31639;DHT22;18248;51.522;7.020;2022-08-21T13:09:18;29.20;67.30
31639;DHT22;18248;51.522;7.020;2022-08-21T13:12:21;29.40;67.20
31639;DHT22;18248;51.522;7.020;2022-08-21T13:15:30;29.50;67.60
31639;DHT22;18248;51.522;7.020;2022-08-21T13:18:33;29.60;67.00
31639;DHT22;18248;51.522;7.020;2022-08-21T13:21:39;29.30;68.10
31639;DHT22;18248;51.522;7.020;2022-08-21T13:24:39;29.30;68.20
31639;DHT22;18248;51.522;7.020;2022-08-21T13:27:40;29.30;69.00
31639;DHT22;18248;51.522;7.020;2022-08-21T13:30:44;29.50;68.60
31639;DHT22;18248;51.522;7.020;2022-08-21T13:33:43;29.40;68.20
31639;DHT22;18248;51.522;7.020;2022-08-21T13:36:43;29.40;68.00
31639;DHT22;18248;51.522;7.020;2022-08-21T13:39:51;29.30;69.00
31639;DHT22;18248;51.522;7.020;2022-08-21T13:42:50;29.20;68.30
31639;DHT22;18248;51.522;7.020;2022-08-21T13:45:51;29.20;68.30
31639;DHT22;18248;51.522;7.020;2022-08-21T13:48:50;29.40;69.20
31639;DHT22;18248;51.522;7.020;2022-08-21T13:51:49;29.70;69.00
31639;DHT22;18248;51.522;7.020;2022-08-21T13:58:03;29.80;67.30
31639;DHT22;18248;51.522;7.020;2022-08-21T14:01:02;29.50;66.80
31639;DHT22;18248;51.522;7.020;2022-08-21T14:04:07;29.40;68.60
31639;DHT22;18248;51.522;7.020;2022-08-21T14:07:25;29.50;67.70
31639;DHT22;18248;51.522;7.020;2022-08-21T14:10:24;29.50;68.20
31639;DHT22;18248;51.522;7.020;2022-08-21T14:13:42;29.40;68.40
31639;DHT22;18248;51.522;7.020;2022-08-21T14:16:55;29.50;69.20
31639;DHT22;18248;51.522;7.020;2022-08-21T14:19:55;29.40;67.70
31639;DHT22;18248;51.522;7.020;2022-08-21T14:22:55;29.30;67.50
31639;DHT22;18248;51.522;7.020;2022-08-21T14:25:58;29.00;68.80
31639;DHT22;18248;51.522;7.020;2022-08-21T14:28:59;28.90;69.10
31639;DHT22;18248;51.522;7.020;2022-08-21T14:32:00;28.60;70.20
31639;DHT22;18248;51.522;7.020;2022-08-21T14:35:06;28.60;70.00
31639;DHT22;18248;51.522;7.020;2022-08-21T14:38:17;28.60;70.90
31639;DHT22;18248;51.522;7.020;2022-08-21T14:41:19;28.40;70.80
31639;DHT22;18248;51.522;7.020;2022-08-21T14:44:19;28.30;71.30
31639;DHT22;18248;51.522;7.020;2022-08-21T14:47:18;28.30;71.00
31639;DHT22;18248;51.522;7.020;2022-08-21T14:50:17;28.10;71.30
31639;DHT22;18248;51.522;7.020;2022-08-21T14:53:15;28.10;71.40
31639;DHT22;18248;51.522;7.020;2022-08-21T14:56:15;28.00;70.90
31639;DHT22;18248;51.522;7.020;2022-08-21T14:59:14;27.90;71.30
31639;DHT22;18248;51.522;7.020;2022-08-21T15:02:12;27.90;71.10
31639;DHT22;18248;51.522;7.020;2022-08-21T15:05:11;28.10;71.20
31639;DHT22;18248;51.522;7.020;2022-08-21T15:08:10;28.40;70.40
31639;DHT22;18248;51.522;7.020;2022-08-21T15:11:12;28.70;70.00
31639;DHT22;18248;51.522;7.020;2022-08-21T15:14:20;28.90;70.70
31639;DHT22;18248;51.522;7.020;2022-08-21T15:17:19;29.20;70.30
31639;DHT22;18248;51.522;7.020;2022-08-21T15:20:17;29.50;69.60
31639;DHT22;18248;51.522;7.020;2022-08-21T15:23:16;29.60;68.90
31639;DHT22;18248;51.522;7.020;2022-08-21T15:26:15;29.60;69.10
31639;DHT22;18248;51.522;7.020;2022-08-21T15:29:14;29.60;69.20
31639;DHT22;18248;51.522;7.020;2022-08-21T15:32:24;29.70;69.70
31639;DHT22;18248;51.522;7.020;2022-08-21T15:35:23;29.50;68.30
31639;DHT22;18248;51.522;7.020;2022-08-21T15:38:21;29.50;69.50
31639;DHT22;18248;51.522;7.020;2022-08-21T15:41:20;29.50;69.10
31639;DHT22;18248;51.522;7.020;2022-08-21T15:44:19;29.40;67.80
31639;DHT22;18248;51.522;7.020;2022-08-21T15:47:22;29.40;67.60
31639;DHT22;18248;51.522;7.020;2022-08-21T15:50:21;29.40;67.40
31639;DHT22;18248;51.522;7.020;2022-08-21T15:53:20;29.20;67.20
31639;DHT22;18248;51.522;7.020;2022-08-21T15:56:25;29.10;67.80
31639;DHT22;18248;51.522;7.020;2022-08-21T15:59:23;29.00;67.70
31639;DHT22;18248;51.522;7.020;2022-08-21T16:02:26;28.90;67.90
31639;DHT22;18248;51.522;7.020;2022-08-21T16:05:25;28.80;67.80
31639;DHT22;18248;51.522;7.020;2022-08-21T16:08:24;28.70;68.00
31639;DHT22;18248;51.522;7.020;2022-08-21T16:11:23;28.60;68.70
31639;DHT22;18248;51.522;7.020;2022-08-21T16:14:23;28.60;69.80
31639;DHT22;18248;51.522;7.020;2022-08-21T16:17:26;28.50;68.80
31639;DHT22;18248;51.522;7.020;2022-08-21T16:20:28;28.50;68.90
31639;DHT22;18248;51.522;7.020;2022-08-21T16:23:27;28.40;69.20
31639;DHT22;18248;51.522;7.020;2022-08-21T16:26:27;28.20;69.00
31639;DHT22;18248;51.522;7.020;2022-08-21T16:29:29;28.20;69.30
31639;DHT22;18248;51.522;7.020;2022-08-21T16:32:30;28.10;68.90
31639;DHT22;18248;51.522;7.020;2022-08-21T16:35:29;28.00;69.20
31639;DHT22;18248;51.522;7.020;2022-08-21T16:38:29;28.00;69.00
31639;DHT22;18248;51.522;7.020;2022-08-21T16:41:30;27.90;69.40
31639;DHT22;18248;51.522;7.020;2022-08-21T16:44:30;27.90;68.90
31639;DHT22;18248;51.522;7.020;2022-08-21T16:47:29;27.80;69.40
31639;DHT22;18248;51.522;7.020;2022-08-21T16:50:29;27.70;69.30
31639;DHT22;18248;51.522;7.020;2022-08-21T16:53:27;27.60;68.80
31639;DHT22;18248;51.522;7.020;2022-08-21T16:56:26;27.60;68.80
31639;DHT22;18248;51.522;7.020;2022-08-21T16:59:25;27.60;68.90
31639;DHT22;18248;51.522;7.020;2022-08-21T17:02:30;27.50;68.40
31639;DHT22;18248;51.522;7.020;2022-08-21T17:05:28;27.40;68.20
31639;DHT22;18248;51.522;7.020;2022-08-21T17:08:27;27.30;68.50
31639;DHT22;18248;51.522;7.020;2022-08-21T17:11:28;27.30;69.20
31639;DHT22;18248;51.522;7.020;2022-08-21T17:14:27;27.30;69.40
31639;DHT22;18248;51.522;7.020;2022-08-21T17:17:26;27.20;69.80
31639;DHT22;18248;51.522;7.020;2022-08-21T17:20:26;27.10;70.20
31639;DHT22;18248;51.522;7.020;2022-08-21T17:23:24;27.10;70.40
31639;DHT22;18248;51.522;7.020;2022-08-21T17:26:23;27.00;71.20
31639;DHT22;18248;51.522;7.020;2022-08-21T17:29:29;26.90;70.70
31639;DHT22;18248;51.522;7.020;2022-08-21T17:32:29;26.90;71.10
31639;DHT22;18248;51.522;7.020;2022-08-21T17:35:28;26.80;70.90
31639;DHT22;18248;51.522;7.020;2022-08-21T17:38:28;26.80;70.90
31639;DHT22;18248;51.522;7.020;2022-08-21T17:41:27;26.70;71.50
31639;DHT22;18248;51.522;7.020;2022-08-21T17:44:25;26.60;71.60
31639;DHT22;18248;51.522;7.020;2022-08-21T17:47:24;26.50;71.30
31639;DHT22;18248;51.522;7.020;2022-08-21T17:50:23;26.50;71.40
31639;DHT22;18248;51.522;7.020;2022-08-21T17:53:22;26.40;71.20
31639;DHT22;18248;51.522;7.020;2022-08-21T17:56:21;26.30;71.50
31639;DHT22;18248;51.522;7.020;2022-08-21T17:59:21;26.20;71.50
31639;DHT22;18248;51.522;7.020;2022-08-21T18:02:21;26.20;71.70
31639;DHT22;18248;51.522;7.020;2022-08-21T18:05:20;26.20;71.60
31639;DHT22;18248;51.522;7.020;2022-08-21T18:08:19;26.00;71.30
31639;DHT22;18248;51.522;7.020;2022-08-21T18:11:19;26.00;71.30
31639;DHT22;18248;51.522;7.020;2022-08-21T18:14:28;25.90;71.40
31639;DHT22;18248;51.522;7.020;2022-08-21T18:17:28;25.80;71.50
31639;DHT22;18248;51.522;7.020;2022-08-21T18:20:30;25.70;71.40
31639;DHT22;18248;51.522;7.020;2022-08-21T18:23:28;25.70;71.80
31639;DHT22;18248;51.522;7.020;2022-08-21T18:26:30;25.60;71.80
31639;DHT22;18248;51.522;7.020;2022-08-21T18:29:29;25.50;71.80
31639;DHT22;18248;51.522;7.020;2022-08-21T18:32:30;25.50;72.20
31639;DHT22;18248;51.522;7.020;2022-08-21T18:35:28;25.40;72.20
31639;DHT22;18248;51.522;7.020;2022-08-21T18:38:27;25.40;72.30
31639;DHT22;18248;51.522;7.020;2022-08-21T18:41:29;25.30;72.70
31639;DHT22;18248;51.522;7.020;2022-08-21T18:44:29;25.20;73.00
31639;DHT22;18248;51.522;7.020;2022-08-21T18:47:32;25.20;73.40
31639;DHT22;18248;51.522;7.020;2022-08-21T18:50:36;25.10;73.90
31639;DHT22;18248;51.522;7.020;2022-08-21T18:53:35;25.10;73.90
31639;DHT22;18248;51.522;7.020;2022-08-21T18:56:34;24.90;74.10
31639;DHT22;18248;51.522;7.020;2022-08-21T18:59:35;24.90;75.20
31639;DHT22;18248;51.522;7.020;2022-08-21T19:02:34;24.80;74.30
31639;DHT22;18248;51.522;7.020;2022-08-21T19:05:32;24.70;74.70
31639;DHT22;18248;51.522;7.020;2022-08-21T19:08:31;24.60;75.10
31639;DHT22;18248;51.522;7.020;2022-08-21T19:11:34;24.50;75.50
31639;DHT22;18248;51.522;7.020;2022-08-21T19:14:33;24.40;75.70
31639;DHT22;18248;51.522;7.020;2022-08-21T19:17:32;24.30;75.90
31639;DHT22;18248;51.522;7.020;2022-08-21T19:20:33;24.30;76.40
31639;DHT22;18248;51.522;7.020;2022-08-21T19:23:34;24.20;77.10
31639;DHT22;18248;51.522;7.020;2022-08-21T19:26:32;24.20;77.20
31639;DHT22;18248;51.522;7.020;2022-08-21T19:29:32;24.10;77.50
31639;DHT22;18248;51.522;7.020;2022-08-21T19:32:32;24.00;77.90
31639;DHT22;18248;51.522;7.020;2022-08-21T19:35:32;24.00;78.40
31639;DHT22;18248;51.522;7.020;2022-08-21T19:38:31;23.90;78.90
31639;DHT22;18248;51.522;7.020;2022-08-21T19:41:35;23.80;80.20
31639;DHT22;18248;51.522;7.020;2022-08-21T19:44:35;23.80;80.10
31639;DHT22;18248;51.522;7.020;2022-08-21T19:47:35;23.70;80.20
31639;DHT22;18248;51.522;7.020;2022-08-21T19:50:35;23.70;80.40
31639;DHT22;18248;51.522;7.020;2022-08-21T19:53:34;23.60;80.70
31639;DHT22;18248;51.522;7.020;2022-08-21T19:56:33;23.60;81.10
31639;DHT22;18248;51.522;7.020;2022-08-21T19:59:32;23.50;81.50
31639;DHT22;18248;51.522;7.020;2022-08-21T20:02:31;23.40;81.80
31639;DHT22;18248;51.522;7.020;2022-08-21T20:05:29;23.40;82.10
31639;DHT22;18248;51.522;7.020;2022-08-21T20:08:28;23.30;82.20
31639;DHT22;18248;51.522;7.020;2022-08-21T20:11:48;23.20;82.50
31639;DHT22;18248;51.522;7.020;2022-08-21T20:14:46;23.20;82.90
31639;DHT22;18248;51.522;7.020;2022-08-21T20:17:45;23.20;83.50
31639;DHT22;18248;51.522;7.020;2022-08-21T20:20:45;23.10;83.40
31639;DHT22;18248;51.522;7.020;2022-08-21T20:23:43;23.00;83.70